sensor_id;sensor_type;location;lat;lon;timestamp;temperature;humidity
1702;DHT22;848;48.354;10.064;2023-11-21T00:02:17;9.30;99.90
1702;DHT22;848;48.354;10.064;2023-11-21T00:04:45;9.40;99.90
1702;DHT22;848;48.354;10.064;2023-11-21T00:07:13;9.30;99.90
1702;DHT22;848;48.354;10.064;2023-11-21T00:09:41;9.30;99.90
1702;DHT22;848;48.354;10.064;2023-11-21T00:12:08;9.20;99.90
1702;DHT22;848;48.354;10.064;2023-11-21T00:14:35;9.20;99.90
1702;DHT22;848;48.354;10.064;2023-11-21T00:17:04;9.20;99.90
1702;DHT22;848;48.354;10.064;2023-11-21T00:19:30;9.10;99.90
1702;DHT22;848;48.354;10.064;2023-11-21T00:22:00;9.00;99.90
1702;DHT22;848;48.354;10.064;2023-11-21T00:24:26;9.00;99.90
1702;DHT22;848;48.354;10.064;2023-11-21T00:26:53;9.00;99.90
1702;DHT22;848;48.354;10.064;2023-11-21T00:29:20;9.10;99.90
1702;DHT22;848;48.354;10.064;2023-11-21T00:31:47;9.10;99.90
1702;DHT22;848;48.354;10.064;2023-11-21T00:34:14;9.10;99.90
1702;DHT22;848;48.354;10.064;2023-11-21T00:36:41;9.00;99.90
1702;DHT22;848;48.354;10.064;2023-11-21T00:39:09;9.00;99.90
1702;DHT22;848;48.354;10.064;2023-11-21T00:41:37;9.00;99.90
1702;DHT22;848;48.354;10.064;2023-11-21T00:44:04;9.00;99.90
1702;DHT22;848;48.354;10.064;2023-11-21T00:46:32;9.00;99.90
1702;DHT22;848;48.354;10.064;2023-11-21T00:48:59;9.00;99.90
1702;DHT22;848;48.354;10.064;2023-11-21T00:51:25;8.90;99.90
1702;DHT22;848;48.354;10.064;2023-11-21T00:53:52;9.00;99.90
1702;DHT22;848;48.354;10.064;2023-11-21T00:56:21;9.00;99.90
1702;DHT22;848;48.354;10.064;2023-11-21T00:58:48;9.00;99.90
1702;DHT22;848;48.354;10.064;2023-11-21T01:01:17;9.00;99.90
1702;DHT22;848;48.354;10.064;2023-11-21T01:03:46;9.10;99.90
1702;DHT22;848;48.354;10.064;2023-11-21T01:06:13;9.10;99.90
1702;DHT22;848;48.354;10.064;2023-11-21T01:08:40;9.00;99.90
1702;DHT22;848;48.354;10.064;2023-11-21T01:11:07;9.10;99.90
1702;DHT22;848;48.354;10.064;2023-11-21T01:13:37;9.10;99.90
1702;DHT22;848;48.354;10.064;2023-11-21T01:16:05;9.10;99.90
1702;DHT22;848;48.354;10.064;2023-11-21T01:18:32;9.10;99.90
1702;DHT22;848;48.354;10.064;2023-11-21T01:21:03;9.10;99.90
1702;DHT22;848;48.354;10.064;2023-11-21T01:23:30;9.10;99.90
1702;DHT22;848;48.354;10.064;2023-11-21T01:25:57;9.10;99.90
1702;DHT22;848;48.354;10.064;2023-11-21T01:28:24;9.00;99.90
1702;DHT22;848;48.354;10.064;2023-11-21T01:30:53;9.00;99.90
1702;DHT22;848;48.354;10.064;2023-11-21T01:33:22;9.00;99.90
1702;DHT22;848;48.354;10.064;2023-11-21T01:35:50;9.00;99.90
1702;DHT22;848;48.354;10.064;2023-11-21T01:38:18;9.00;99.90
1702;DHT22;848;48.354;10.064;2023-11-21T01:40:45;9.00;99.90
1702;DHT22;848;48.354;10.064;2023-11-21T01:43:12;9.00;99.90
1702;DHT22;848;48.354;10.064;2023-11-21T01:45:39;9.10;99.90
1702;DHT22;848;48.354;10.064;2023-11-21T01:48:07;9.10;99.90
1702;DHT22;848;48.354;10.064;2023-11-21T01:50:35;9.10;99.90
1702;DHT22;848;48.354;10.064;2023-11-21T01:53:02;9.00;99.90
1702;DHT22;848;48.354;10.064;2023-11-21T01:55:29;9.00;99.90
1702;DHT22;848;48.354;10.064;2023-11-21T01:57:57;9.00;99.90
1702;DHT22;848;48.354;10.064;2023-11-21T02:00:24;9.00;99.90
1702;DHT22;848;48.354;10.064;2023-11-21T02:02:55;9.00;99.90
1702;DHT22;848;48.354;10.064;2023-11-21T02:05:23;9.00;99.90
1702;DHT22;848;48.354;10.064;2023-11-21T02:07:51;9.00;99.90
1702;DHT22;848;48.354;10.064;2023-11-21T02:10:19;9.20;99.90
1702;DHT22;848;48.354;10.064;2023-11-21T02:12:48;9.10;99.90
1702;DHT22;848;48.354;10.064;2023-11-21T02:15:17;9.10;99.90
1702;DHT22;848;48.354;10.064;2023-11-21T02:17:45;9.10;99.90
1702;DHT22;848;48.354;10.064;2023-11-21T02:20:15;9.10;99.90
1702;DHT22;848;48.354;10.064;2023-11-21T02:22:51;9.10;99.90
1702;DHT22;848;48.354;10.064;2023-11-21T02:25:21;9.10;99.90
1702;DHT22;848;48.354;10.064;2023-11-21T02:27:48;9.10;99.90
1702;DHT22;848;48.354;10.064;2023-11-21T02:30:15;9.10;99.90
1702;DHT22;848;48.354;10.064;2023-11-21T02:32:42;9.10;99.90
1702;DHT22;848;48.354;10.064;2023-11-21T02:35:09;9.10;99.90
1702;DHT22;848;48.354;10.064;2023-11-21T02:37:37;9.10;99.90
1702;DHT22;848;48.354;10.064;2023-11-21T02:40:09;9.10;99.90
1702;DHT22;848;48.354;10.064;2023-11-21T02:42:38;9.10;99.90
1702;DHT22;848;48.354;10.064;2023-11-21T02:45:06;9.00;99.90
1702;DHT22;848;48.354;10.064;2023-11-21T02:47:33;9.00;99.90
1702;DHT22;848;48.354;10.064;2023-11-21T02:50:00;9.00;99.90
1702;DHT22;848;48.354;10.064;2023-11-21T02:52:27;9.10;99.90
1702;DHT22;848;48.354;10.064;2023-11-21T02:54:54;9.00;99.90
1702;DHT22;848;48.354;10.064;2023-11-21T02:57:22;9.00;99.90
1702;DHT22;848;48.354;10.064;2023-11-21T02:59:49;8.90;99.90
1702;DHT22;848;48.354;10.064;2023-11-21T03:02:16;8.90;99.90
1702;DHT22;848;48.354;10.064;2023-11-21T03:04:42;8.90;99.90
1702;DHT22;848;48.354;10.064;2023-11-21T03:07:10;8.90;99.90
1702;DHT22;848;48.354;10.064;2023-11-21T03:09:36;8.80;99.90
1702;DHT22;848;48.354;10.064;2023-11-21T03:12:04;8.80;99.90
1702;DHT22;848;48.354;10.064;2023-11-21T03:14:33;8.80;99.90
1702;DHT22;848;48.354;10.064;2023-11-21T03:17:00;8.80;99.90
1702;DHT22;848;48.354;10.064;2023-11-21T03:19:26;8.80;99.90
1702;DHT22;848;48.354;10.064;2023-11-21T03:21:53;8.70;99.90
1702;DHT22;848;48.354;10.064;2023-11-21T03:24:20;8.70;99.90
1702;DHT22;848;48.354;10.064;2023-11-21T03:26:48;8.70;99.90
1702;DHT22;848;48.354;10.064;2023-11-21T03:29:16;8.70;99.90
1702;DHT22;848;48.354;10.064;2023-11-21T03:31:44;8.80;99.90
1702;DHT22;848;48.354;10.064;2023-11-21T03:34:22;8.80;99.90
1702;DHT22;848;48.354;10.064;2023-11-21T03:36:49;8.80;99.90
1702;DHT22;848;48.354;10.064;2023-11-21T03:39:16;8.70;99.90
1702;DHT22;848;48.354;10.064;2023-11-21T03:41:43;8.70;99.90
1702;DHT22;848;48.354;10.064;2023-11-21T03:44:10;8.70;99.90
1702;DHT22;848;48.354;10.064;2023-11-21T03:46:37;8.70;99.90
1702;DHT22;848;48.354;10.064;2023-11-21T03:49:05;8.70;99.90
1702;DHT22;848;48.354;10.064;2023-11-21T03:51:34;8.70;99.90
1702;DHT22;848;48.354;10.064;2023-11-21T03:54:04;8.80;99.90
1702;DHT22;848;48.354;10.064;2023-11-21T03:56:31;8.80;99.90
1702;DHT22;848;48.354;10.064;2023-11-21T03:58:58;8.70;99.90
1702;DHT22;848;48.354;10.064;2023-11-21T04:01:25;8.80;99.90
1702;DHT22;848;48.354;10.064;2023-11-21T04:03:52;8.70;99.90
1702;DHT22;848;48.354;10.064;2023-11-21T04:06:20;8.70;99.90
1702;DHT22;848;48.354;10.064;2023-11-21T04:08:47;8.70;99.90
1702;DHT22;848;48.354;10.064;2023-11-21T04:11:14;8.80;99.90
1702;DHT22;848;48.354;10.064;2023-11-21T04:13:41;8.80;99.90
1702;DHT22;848;48.354;10.064;2023-11-21T04:16:09;8.80;99.90
1702;DHT22;848;48.354;10.064;2023-11-21T04:18:36;8.80;99.90
1702;DHT22;848;48.354;10.064;2023-11-21T04:21:07;8.90;99.90
1702;DHT22;848;48.354;10.064;2023-11-21T04:23:36;8.80;99.90
1702;DHT22;848;48.354;10.064;2023-11-21T04:26:02;9.00;99.90
1702;DHT22;848;48.354;10.064;2023-11-21T04:28:29;8.90;99.90
1702;DHT22;848;48.354;10.064;2023-11-21T04:30:56;8.90;99.90
1702;DHT22;848;48.354;10.064;2023-11-21T04:33:23;9.00;99.90
1702;DHT22;848;48.354;10.064;2023-11-21T04:35:51;9.00;99.90
1702;DHT22;848;48.354;10.064;2023-11-21T04:38:18;8.90;99.90
1702;DHT22;848;48.354;10.064;2023-11-21T04:40:46;8.90;99.90
1702;DHT22;848;48.354;10.064;2023-11-21T04:43:13;8.90;99.90
1702;DHT22;848;48.354;10.064;2023-11-21T04:45:40;8.80;99.90
1702;DHT22;848;48.354;10.064;2023-11-21T04:48:07;8.80;99.90
1702;DHT22;848;48.354;10.064;2023-11-21T04:50:34;8.90;99.90
1702;DHT22;848;48.354;10.064;2023-11-21T04:53:01;8.80;99.90
1702;DHT22;848;48.354;10.064;2023-11-21T04:55:28;8.80;99.90
1702;DHT22;848;48.354;10.064;2023-11-21T04:57:57;8.80;99.90
1702;DHT22;848;48.354;10.064;2023-11-21T05:00:23;8.80;99.90
1702;DHT22;848;48.354;10.064;2023-11-21T05:02:50;8.80;99.90
1702;DHT22;848;48.354;10.064;2023-11-21T05:05:17;8.80;99.90
1702;DHT22;848;48.354;10.064;2023-11-21T05:07:44;8.90;99.90
1702;DHT22;848;48.354;10.064;2023-11-21T05:10:11;8.90;99.90
1702;DHT22;848;48.354;10.064;2023-11-21T05:12:40;8.80;99.90
1702;DHT22;848;48.354;10.064;2023-11-21T05:15:09;8.80;99.90
1702;DHT22;848;48.354;10.064;2023-11-21T05:17:39;8.90;99.90
1702;DHT22;848;48.354;10.064;2023-11-21T05:20:08;8.80;99.90
1702;DHT22;848;48.354;10.064;2023-11-21T05:22:36;8.80;99.90
1702;DHT22;848;48.354;10.064;2023-11-21T05:25:05;8.80;99.90
1702;DHT22;848;48.354;10.064;2023-11-21T05:27:33;8.80;99.90
1702;DHT22;848;48.354;10.064;2023-11-21T05:30:03;8.90;99.90
1702;DHT22;848;48.354;10.064;2023-11-21T05:32:32;8.90;99.90
1702;DHT22;848;48.354;10.064;2023-11-21T05:34:59;8.90;99.90
1702;DHT22;848;48.354;10.064;2023-11-21T05:37:26;8.80;99.90
1702;DHT22;848;48.354;10.064;2023-11-21T05:39:53;8.70;99.90
1702;DHT22;848;48.354;10.064;2023-11-21T05:42:21;8.70;99.90
1702;DHT22;848;48.354;10.064;2023-11-21T05:44:48;8.70;99.90
1702;DHT22;848;48.354;10.064;2023-11-21T05:47:15;8.70;99.90
1702;DHT22;848;48.354;10.064;2023-11-21T05:49:44;8.70;99.90
1702;DHT22;848;48.354;10.064;2023-11-21T05:52:15;8.60;99.90
1702;DHT22;848;48.354;10.064;2023-11-21T05:54:42;8.60;99.90
1702;DHT22;848;48.354;10.064;2023-11-21T05:57:09;8.60;99.90
1702;DHT22;848;48.354;10.064;2023-11-21T05:59:36;8.60;99.90
1702;DHT22;848;48.354;10.064;2023-11-21T06:02:03;8.60;99.90
1702;DHT22;848;48.354;10.064;2023-11-21T06:04:30;8.60;99.90
1702;DHT22;848;48.354;10.064;2023-11-21T06:06:59;8.60;99.90
1702;DHT22;848;48.354;10.064;2023-11-21T06:09:26;8.60;99.90
1702;DHT22;848;48.354;10.064;2023-11-21T06:11:53;8.60;99.90
1702;DHT22;848;48.354;10.064;2023-11-21T06:14:20;8.60;99.90
1702;DHT22;848;48.354;10.064;2023-11-21T06:16:47;8.60;99.90
1702;DHT22;848;48.354;10.064;2023-11-21T06:19:16;8.60;99.90
1702;DHT22;848;48.354;10.064;2023-11-21T06:21:46;8.60;99.90
1702;DHT22;848;48.354;10.064;2023-11-21T06:24:14;8.60;99.90
1702;DHT22;848;48.354;10.064;2023-11-21T06:26:42;8.60;99.90
1702;DHT22;848;48.354;10.064;2023-11-21T06:29:09;8.60;99.90
1702;DHT22;848;48.354;10.064;2023-11-21T06:31:36;8.60;99.90
1702;DHT22;848;48.354;10.064;2023-11-21T06:34:03;8.60;99.90
1702;DHT22;848;48.354;10.064;2023-11-21T06:36:30;8.70;99.90
1702;DHT22;848;48.354;10.064;2023-11-21T06:38:57;8.60;99.90
1702;DHT22;848;48.354;10.064;2023-11-21T06:41:25;8.60;99.90
1702;DHT22;848;48.354;10.064;2023-11-21T06:43:52;8.60;99.90
1702;DHT22;848;48.354;10.064;2023-11-21T06:46:19;8.50;99.90
1702;DHT22;848;48.354;10.064;2023-11-21T06:48:45;8.50;99.90
1702;DHT22;848;48.354;10.064;2023-11-21T06:51:14;8.40;99.90
1702;DHT22;848;48.354;10.064;2023-11-21T06:53:41;8.40;99.90
1702;DHT22;848;48.354;10.064;2023-11-21T06:56:15;8.50;99.90
1702;DHT22;848;48.354;10.064;2023-11-21T06:58:50;8.50;99.90
1702;DHT22;848;48.354;10.064;2023-11-21T07:01:21;8.40;99.90
1702;DHT22;848;48.354;10.064;2023-11-21T07:03:50;8.50;99.90
1702;DHT22;848;48.354;10.064;2023-11-21T07:06:17;8.40;99.90
1702;DHT22;848;48.354;10.064;2023-11-21T07:08:44;8.50;99.90
1702;DHT22;848;48.354;10.064;2023-11-21T07:11:10;8.50;99.90
1702;DHT22;848;48.354;10.064;2023-11-21T07:13:37;8.60;99.90
1702;DHT22;848;48.354;10.064;2023-11-21T07:16:06;8.50;99.90
1702;DHT22;848;48.354;10.064;2023-11-21T07:18:33;8.40;99.90
1702;DHT22;848;48.354;10.064;2023-11-21T07:21:00;8.30;99.90
1702;DHT22;848;48.354;10.064;2023-11-21T07:23:30;8.30;99.90
1702;DHT22;848;48.354;10.064;2023-11-21T07:25:56;8.40;99.90
1702;DHT22;848;48.354;10.064;2023-11-21T07:28:24;8.20;99.90
1702;DHT22;848;48.354;10.064;2023-11-21T07:30:51;8.10;99.90
1702;DHT22;848;48.354;10.064;2023-11-21T07:33:20;8.10;99.90
1702;DHT22;848;48.354;10.064;2023-11-21T07:35:47;8.30;99.90
1702;DHT22;848;48.354;10.064;2023-11-21T07:38:15;8.40;99.90
1702;DHT22;848;48.354;10.064;2023-11-21T07:40:42;8.60;99.90
1702;DHT22;848;48.354;10.064;2023-11-21T07:43:09;8.70;99.90
1702;DHT22;848;48.354;10.064;2023-11-21T07:45:36;8.80;99.90
1702;DHT22;848;48.354;10.064;2023-11-21T07:48:03;8.70;99.90
1702;DHT22;848;48.354;10.064;2023-11-21T07:50:33;8.70;99.90
1702;DHT22;848;48.354;10.064;2023-11-21T07:53:00;8.60;99.90
1702;DHT22;848;48.354;10.064;2023-11-21T07:55:27;8.50;99.90
1702;DHT22;848;48.354;10.064;2023-11-21T07:57:57;8.60;99.90
1702;DHT22;848;48.354;10.064;2023-11-21T08:00:24;8.80;99.90
1702;DHT22;848;48.354;10.064;2023-11-21T08:02:55;8.80;99.90
1702;DHT22;848;48.354;10.064;2023-11-21T08:05:22;8.80;99.90
1702;DHT22;848;48.354;10.064;2023-11-21T08:07:51;9.00;99.90
1702;DHT22;848;48.354;10.064;2023-11-21T08:10:18;9.00;99.90
1702;DHT22;848;48.354;10.064;2023-11-21T08:12:46;8.90;99.90
1702;DHT22;848;48.354;10.064;2023-11-21T08:15:14;8.90;99.90
1702;DHT22;848;48.354;10.064;2023-11-21T08:17:41;9.00;99.90
1702;DHT22;848;48.354;10.064;2023-11-21T08:20:09;9.10;99.90
1702;DHT22;848;48.354;10.064;2023-11-21T08:22:37;9.10;99.90
1702;DHT22;848;48.354;10.064;2023-11-21T08:25:08;9.10;99.90
1702;DHT22;848;48.354;10.064;2023-11-21T08:27:35;9.00;99.90
1702;DHT22;848;48.354;10.064;2023-11-21T08:30:02;9.10;99.90
1702;DHT22;848;48.354;10.064;2023-11-21T08:32:29;9.10;99.90
1702;DHT22;848;48.354;10.064;2023-11-21T08:34:58;9.10;99.90
1702;DHT22;848;48.354;10.064;2023-11-21T08:37:25;9.20;99.90
1702;DHT22;848;48.354;10.064;2023-11-21T08:39:53;9.20;99.90
1702;DHT22;848;48.354;10.064;2023-11-21T08:42:21;9.20;99.90
1702;DHT22;848;48.354;10.064;2023-11-21T08:44:48;9.10;99.90
1702;DHT22;848;48.354;10.064;2023-11-21T08:47:15;9.00;99.90
1702;DHT22;848;48.354;10.064;2023-11-21T08:49:42;9.10;99.90
1702;DHT22;848;48.354;10.064;2023-11-21T08:52:09;9.20;99.90
1702;DHT22;848;48.354;10.064;2023-11-21T08:54:36;9.30;99.90
1702;DHT22;848;48.354;10.064;2023-11-21T08:57:03;9.40;99.90
1702;DHT22;848;48.354;10.064;2023-11-21T08:59:32;9.30;99.90
1702;DHT22;848;48.354;10.064;2023-11-21T09:01:58;9.20;99.90
1702;DHT22;848;48.354;10.064;2023-11-21T09:04:25;9.20;99.90
1702;DHT22;848;48.354;10.064;2023-11-21T09:06:52;9.20;99.90
1702;DHT22;848;48.354;10.064;2023-11-21T09:09:19;9.10;99.90
1702;DHT22;848;48.354;10.064;2023-11-21T09:11:46;9.00;99.90
1702;DHT22;848;48.354;10.064;2023-11-21T09:14:14;9.10;99.90
1702;DHT22;848;48.354;10.064;2023-11-21T09:16:44;9.30;99.90
1702;DHT22;848;48.354;10.064;2023-11-21T09:19:12;9.20;99.90
1702;DHT22;848;48.354;10.064;2023-11-21T09:21:40;9.20;99.90
1702;DHT22;848;48.354;10.064;2023-11-21T09:24:07;9.30;99.90
1702;DHT22;848;48.354;10.064;2023-11-21T09:26:35;9.40;99.90
1702;DHT22;848;48.354;10.064;2023-11-21T09:29:02;9.50;99.90
1702;DHT22;848;48.354;10.064;2023-11-21T09:31:28;9.50;99.90
1702;DHT22;848;48.354;10.064;2023-11-21T09:33:58;9.50;99.90
1702;DHT22;848;48.354;10.064;2023-11-21T09:36:24;9.50;99.90
1702;DHT22;848;48.354;10.064;2023-11-21T09:38:53;9.60;99.90
1702;DHT22;848;48.354;10.064;2023-11-21T09:41:49;9.70;99.90
1702;DHT22;848;48.354;10.064;2023-11-21T09:44:18;9.60;99.90
1702;DHT22;848;48.354;10.064;2023-11-21T09:46:48;9.70;99.90
1702;DHT22;848;48.354;10.064;2023-11-21T09:49:22;9.30;99.90
1702;DHT22;848;48.354;10.064;2023-11-21T09:51:54;9.40;99.90
1702;DHT22;848;48.354;10.064;2023-11-21T09:54:22;9.50;99.90
1702;DHT22;848;48.354;10.064;2023-11-21T09:56:49;9.40;99.90
1702;DHT22;848;48.354;10.064;2023-11-21T09:59:16;9.50;99.90
1702;DHT22;848;48.354;10.064;2023-11-21T10:01:44;9.80;99.90
1702;DHT22;848;48.354;10.064;2023-11-21T10:04:12;10.00;99.90
1702;DHT22;848;48.354;10.064;2023-11-21T10:06:40;10.10;99.90
1702;DHT22;848;48.354;10.064;2023-11-21T10:09:10;10.00;99.90
1702;DHT22;848;48.354;10.064;2023-11-21T10:11:40;10.10;99.90
1702;DHT22;848;48.354;10.064;2023-11-21T10:14:08;10.10;99.90
1702;DHT22;848;48.354;10.064;2023-11-21T10:16:38;10.40;99.90
1702;DHT22;848;48.354;10.064;2023-11-21T10:19:06;10.70;99.90
1702;DHT22;848;48.354;10.064;2023-11-21T10:21:39;10.90;99.90
1702;DHT22;848;48.354;10.064;2023-11-21T10:24:07;10.60;99.90
1702;DHT22;848;48.354;10.064;2023-11-21T10:26:34;10.70;99.90
1702;DHT22;848;48.354;10.064;2023-11-21T10:29:02;10.20;99.90
1702;DHT22;848;48.354;10.064;2023-11-21T10:31:30;10.00;99.90
1702;DHT22;848;48.354;10.064;2023-11-21T10:34:13;9.90;99.90
1702;DHT22;848;48.354;10.064;2023-11-21T10:36:41;9.90;99.90
1702;DHT22;848;48.354;10.064;2023-11-21T10:39:08;9.90;99.90
1702;DHT22;848;48.354;10.064;2023-11-21T10:41:36;9.80;99.90
1702;DHT22;848;48.354;10.064;2023-11-21T10:44:05;9.90;99.90
1702;DHT22;848;48.354;10.064;2023-11-21T10:46:35;10.00;99.90
1702;DHT22;848;48.354;10.064;2023-11-21T10:49:01;10.10;99.90
1702;DHT22;848;48.354;10.064;2023-11-21T10:51:28;10.10;99.90
1702;DHT22;848;48.354;10.064;2023-11-21T10:53:56;10.30;99.90
1702;DHT22;848;48.354;10.064;2023-11-21T10:56:26;10.40;99.90
1702;DHT22;848;48.354;10.064;2023-11-21T10:58:56;10.30;99.90
1702;DHT22;848;48.354;10.064;2023-11-21T11:01:26;10.10;99.90
1702;DHT22;848;48.354;10.064;2023-11-21T11:03:55;10.20;99.90
1702;DHT22;848;48.354;10.064;2023-11-21T11:06:24;10.10;99.90
1702;DHT22;848;48.354;10.064;2023-11-21T11:08:53;10.10;99.90
1702;DHT22;848;48.354;10.064;2023-11-21T11:11:24;10.20;99.90
1702;DHT22;848;48.354;10.064;2023-11-21T11:13:53;10.30;99.90
1702;DHT22;848;48.354;10.064;2023-11-21T11:16:20;10.50;99.90
1702;DHT22;848;48.354;10.064;2023-11-21T11:18:48;10.60;99.90
1702;DHT22;848;48.354;10.064;2023-11-21T11:21:42;10.70;99.90
1702;DHT22;848;48.354;10.064;2023-11-21T11:24:33;10.50;99.90
1702;DHT22;848;48.354;10.064;2023-11-21T11:27:11;10.70;99.90
1702;DHT22;848;48.354;10.064;2023-11-21T11:29:46;10.90;99.90
1702;DHT22;848;48.354;10.064;2023-11-21T11:32:21;11.10;99.90
1702;DHT22;848;48.354;10.064;2023-11-21T11:34:53;11.20;99.90
1702;DHT22;848;48.354;10.064;2023-11-21T11:37:22;11.10;99.90
1702;DHT22;848;48.354;10.064;2023-11-21T11:39:52;11.10;99.90
1702;DHT22;848;48.354;10.064;2023-11-21T11:42:21;11.20;99.90
1702;DHT22;848;48.354;10.064;2023-11-21T11:44:53;11.30;99.90
1702;DHT22;848;48.354;10.064;2023-11-21T11:47:22;11.30;99.90
1702;DHT22;848;48.354;10.064;2023-11-21T11:50:04;11.30;99.90
1702;DHT22;848;48.354;10.064;2023-11-21T11:52:41;11.20;99.90
1702;DHT22;848;48.354;10.064;2023-11-21T11:55:09;11.00;99.90
1702;DHT22;848;48.354;10.064;2023-11-21T11:57:38;10.90;99.90
1702;DHT22;848;48.354;10.064;2023-11-21T12:00:10;10.90;99.90
1702;DHT22;848;48.354;10.064;2023-11-21T12:02:41;11.10;99.90
1702;DHT22;848;48.354;10.064;2023-11-21T12:05:10;11.10;99.90
1702;DHT22;848;48.354;10.064;2023-11-21T12:07:46;11.30;99.90
1702;DHT22;848;48.354;10.064;2023-11-21T12:10:14;11.60;99.90
1702;DHT22;848;48.354;10.064;2023-11-21T12:12:46;11.80;99.90
1702;DHT22;848;48.354;10.064;2023-11-21T12:15:13;12.00;99.90
1702;DHT22;848;48.354;10.064;2023-11-21T12:17:41;11.90;99.90
1702;DHT22;848;48.354;10.064;2023-11-21T12:20:10;11.80;99.90
1702;DHT22;848;48.354;10.064;2023-11-21T12:22:42;11.70;99.90
1702;DHT22;848;48.354;10.064;2023-11-21T12:25:09;11.70;99.90
1702;DHT22;848;48.354;10.064;2023-11-21T12:27:45;11.30;99.90
1702;DHT22;848;48.354;10.064;2023-11-21T12:30:15;11.10;99.90
1702;DHT22;848;48.354;10.064;2023-11-21T12:32:43;10.90;99.90
1702;DHT22;848;48.354;10.064;2023-11-21T12:35:12;10.90;99.90
1702;DHT22;848;48.354;10.064;2023-11-21T12:37:40;10.70;99.90
1702;DHT22;848;48.354;10.064;2023-11-21T12:40:09;10.50;99.90
1702;DHT22;848;48.354;10.064;2023-11-21T12:42:38;10.50;99.90
1702;DHT22;848;48.354;10.064;2023-11-21T12:45:18;10.50;99.90
1702;DHT22;848;48.354;10.064;2023-11-21T12:47:47;10.60;99.90
1702;DHT22;848;48.354;10.064;2023-11-21T12:50:15;10.50;99.90
1702;DHT22;848;48.354;10.064;2023-11-21T12:52:42;10.50;99.90
1702;DHT22;848;48.354;10.064;2023-11-21T12:55:16;10.40;99.90
1702;DHT22;848;48.354;10.064;2023-11-21T12:57:44;10.40;99.90
1702;DHT22;848;48.354;10.064;2023-11-21T13:00:15;10.40;99.90
1702;DHT22;848;48.354;10.064;2023-11-21T13:02:53;10.50;99.90
1702;DHT22;848;48.354;10.064;2023-11-21T13:05:26;10.30;99.90
1702;DHT22;848;48.354;10.064;2023-11-21T13:07:54;10.20;99.90
1702;DHT22;848;48.354;10.064;2023-11-21T13:10:23;10.00;99.90
1702;DHT22;848;48.354;10.064;2023-11-21T13:12:56;9.80;99.90
1702;DHT22;848;48.354;10.064;2023-11-21T13:15:27;9.80;99.90
1702;DHT22;848;48.354;10.064;2023-11-21T13:17:57;9.80;99.90
1702;DHT22;848;48.354;10.064;2023-11-21T13:20:24;9.80;99.90
1702;DHT22;848;48.354;10.064;2023-11-21T13:22:52;9.80;99.90
1702;DHT22;848;48.354;10.064;2023-11-21T13:25:23;9.80;99.90
1702;DHT22;848;48.354;10.064;2023-11-21T13:27:53;9.70;99.90
1702;DHT22;848;48.354;10.064;2023-11-21T13:30:20;9.80;99.90
1702;DHT22;848;48.354;10.064;2023-11-21T13:32:53;9.80;99.90
1702;DHT22;848;48.354;10.064;2023-11-21T13:35:23;9.80;99.90
1702;DHT22;848;48.354;10.064;2023-11-21T13:37:57;9.80;99.90
1702;DHT22;848;48.354;10.064;2023-11-21T13:40:29;9.80;99.90
1702;DHT22;848;48.354;10.064;2023-11-21T13:42:56;9.90;99.90
1702;DHT22;848;48.354;10.064;2023-11-21T13:45:25;10.00;99.90
1702;DHT22;848;48.354;10.064;2023-11-21T13:47:55;10.10;99.90
1702;DHT22;848;48.354;10.064;2023-11-21T13:50:24;9.90;99.90
1702;DHT22;848;48.354;10.064;2023-11-21T13:52:56;10.10;99.90
1702;DHT22;848;48.354;10.064;2023-11-21T13:55:23;10.20;99.90
1702;DHT22;848;48.354;10.064;2023-11-21T13:57:51;10.30;99.90
1702;DHT22;848;48.354;10.064;2023-11-21T14:00:18;10.30;99.90
1702;DHT22;848;48.354;10.064;2023-11-21T14:03:11;10.30;99.90
1702;DHT22;848;48.354;10.064;2023-11-21T14:05:45;10.20;99.90
1702;DHT22;848;48.354;10.064;2023-11-21T14:08:13;10.20;99.90
1702;DHT22;848;48.354;10.064;2023-11-21T14:10:42;10.20;99.90
1702;DHT22;848;48.354;10.064;2023-11-21T14:13:11;10.30;99.90
1702;DHT22;848;48.354;10.064;2023-11-21T14:15:39;10.30;99.90
1702;DHT22;848;48.354;10.064;2023-11-21T14:18:12;10.30;99.90
1702;DHT22;848;48.354;10.064;2023-11-21T14:20:42;10.30;99.90
1702;DHT22;848;48.354;10.064;2023-11-21T14:23:10;10.30;99.90
1702;DHT22;848;48.354;10.064;2023-11-21T14:25:37;10.30;99.90
1702;DHT22;848;48.354;10.064;2023-11-21T14:28:05;10.20;99.90
1702;DHT22;848;48.354;10.064;2023-11-21T14:30:32;10.20;99.90
1702;DHT22;848;48.354;10.064;2023-11-21T14:33:01;10.40;99.90
1702;DHT22;848;48.354;10.064;2023-11-21T14:35:30;10.10;99.90
1702;DHT22;848;48.354;10.064;2023-11-21T14:37:58;10.10;99.90
1702;DHT22;848;48.354;10.064;2023-11-21T14:40:26;10.00;99.90
1702;DHT22;848;48.354;10.064;2023-11-21T14:42:59;9.90;99.90
1702;DHT22;848;48.354;10.064;2023-11-21T14:45:25;9.80;99.90
1702;DHT22;848;48.354;10.064;2023-11-21T14:47:54;9.70;99.90
1702;DHT22;848;48.354;10.064;2023-11-21T14:50:33;9.70;99.90
1702;DHT22;848;48.354;10.064;2023-11-21T14:53:13;9.70;99.90
1702;DHT22;848;48.354;10.064;2023-11-21T14:55:40;9.70;99.90
1702;DHT22;848;48.354;10.064;2023-11-21T14:58:20;9.70;99.90
1702;DHT22;848;48.354;10.064;2023-11-21T15:00:53;9.70;99.90
1702;DHT22;848;48.354;10.064;2023-11-21T15:03:23;9.60;99.90
1702;DHT22;848;48.354;10.064;2023-11-21T15:06:09;9.70;99.90
1702;DHT22;848;48.354;10.064;2023-11-21T15:08:57;9.60;99.90
1702;DHT22;848;48.354;10.064;2023-11-21T15:11:38;9.60;99.90
1702;DHT22;848;48.354;10.064;2023-11-21T15:14:04;9.60;99.90
1702;DHT22;848;48.354;10.064;2023-11-21T15:16:33;9.60;99.90
1702;DHT22;848;48.354;10.064;2023-11-21T15:19:04;9.60;99.90
1702;DHT22;848;48.354;10.064;2023-11-21T15:21:33;9.60;99.90
1702;DHT22;848;48.354;10.064;2023-11-21T15:24:00;9.60;99.90
1702;DHT22;848;48.354;10.064;2023-11-21T15:26:28;9.60;99.90
1702;DHT22;848;48.354;10.064;2023-11-21T15:28:55;9.60;99.90
1702;DHT22;848;48.354;10.064;2023-11-21T15:31:22;9.60;99.90
1702;DHT22;848;48.354;10.064;2023-11-21T15:33:50;9.50;99.90
1702;DHT22;848;48.354;10.064;2023-11-21T15:36:18;9.50;99.90
1702;DHT22;848;48.354;10.064;2023-11-21T15:38:46;9.60;99.90
1702;DHT22;848;48.354;10.064;2023-11-21T15:41:13;9.60;99.90
1702;DHT22;848;48.354;10.064;2023-11-21T15:43:40;9.60;99.90
1702;DHT22;848;48.354;10.064;2023-11-21T15:46:07;9.70;99.90
1702;DHT22;848;48.354;10.064;2023-11-21T15:48:34;9.60;99.90
1702;DHT22;848;48.354;10.064;2023-11-21T15:51:01;9.70;99.90
1702;DHT22;848;48.354;10.064;2023-11-21T15:53:30;9.70;99.90
1702;DHT22;848;48.354;10.064;2023-11-21T15:55:59;9.70;99.90
1702;DHT22;848;48.354;10.064;2023-11-21T15:58:26;9.70;99.90
1702;DHT22;848;48.354;10.064;2023-11-21T16:00:52;9.60;99.90
1702;DHT22;848;48.354;10.064;2023-11-21T16:03:19;9.60;99.90
1702;DHT22;848;48.354;10.064;2023-11-21T16:05:47;9.60;99.90
1702;DHT22;848;48.354;10.064;2023-11-21T16:08:14;9.50;99.90
1702;DHT22;848;48.354;10.064;2023-11-21T16:10:43;9.60;99.90
1702;DHT22;848;48.354;10.064;2023-11-21T16:13:11;9.60;99.90
1702;DHT22;848;48.354;10.064;2023-11-21T16:15:38;9.60;99.90
1702;DHT22;848;48.354;10.064;2023-11-21T16:18:06;9.70;99.90
1702;DHT22;848;48.354;10.064;2023-11-21T16:20:33;9.70;99.90
1702;DHT22;848;48.354;10.064;2023-11-21T16:23:00;9.60;99.90
1702;DHT22;848;48.354;10.064;2023-11-21T16:25:27;9.60;99.90